• Join FlightAware (Why Join?)
  • Login
  • US Flag 
02:43AM EST


 

Airport Tracker/Info


-or-


 

Live Flight TrackerFlight Track Log ✈ KAL1931 ✈ 21-Jul-2013 ✈ RKJY / RSU - RKPC / CJU

Flight Track Log - Related Links

Times and Time Zones

All times are in EDT time to prevent confusion due to time zone crossing. See the KAL1931 flight status page for this flight to view local times or setup timezone preferences in your user account.

Time Position Orientation Groundspeed Altitude Reporting Facility
EDT Latitude Longitude Course Direction KTS MPH feet Rate Location/Type
10:16PM 34.7702 127.5554 215° Southwest  Level Estimated
10:17PM 34.7006 127.4956 215° Southwest  Level Estimated
10:18PM 34.6309 127.4359 215° Southwest  Level Estimated
10:19PM 34.5612 127.3763 215° Southwest  Level Estimated
10:20PM 34.4915 127.3168 215° Southwest  Level Estimated
10:21PM 34.4218 127.2574 215° Southwest  Level Estimated
10:22PM 34.3520 127.1981 215° Southwest  Level Estimated
10:23PM 34.2822 127.1389 215° Southwest  Level Estimated
10:24PM 34.2124 127.0798 215° Southwest  Level Estimated
10:25PM 34.1425 127.0208 215° Southwest  Level Estimated
10:26PM 34.0726 126.9619 215° Southwest  Level Estimated
10:27PM 34.0027 126.9031 215° Southwest  Level Estimated
10:28PM 33.9328 126.8444 215° Southwest  Level Estimated
10:29PM 33.8885 126.8072 215° Southwest  Level Estimated
10:30PM 33.8442 126.7701 215° Southwest  Level Estimated
10:31PM 33.7998 126.7331 215° Southwest  Level Estimated
10:32PM 33.7555 126.6960 215° Southwest  Level Estimated
10:33PM 33.7111 126.6591 215° Southwest  Level Estimated
10:34PM 33.6668 126.6221 215° Southwest  Level Estimated
10:35PM 33.6224 126.5852 215° Southwest  Level Estimated
10:36PM 33.5780 126.5483 215° Southwest  Level Estimated
10:37PM 33.5336 126.5115 215° Southwest  Level Estimated
10:38PM 33.5113 126.4930 215° Southwest  Level Estimated
10:39PM 33.5113 126.4930 203° Southwest  Level Estimated
10:40PM 33.5113 126.4930 203° Southwest  Level Estimated
10:41PM 33.5113 126.4930 203° Southwest  Level Estimated
10:42PM 33.5113 126.4930 203° Southwest  Level Estimated
10:43PM 33.5113 126.4930 203° Southwest  Level Estimated
10:44PM 33.5113 126.4930 203° Southwest  Level Estimated
10:45PM 33.5113 126.4930 203° Southwest  Level Estimated
10:46PM 33.5113 126.4930 203° Southwest  Level Estimated